Time;durP1;ratioP1;P1;durP2;ratioP2;P2;SDS_P1;SDS_P2;PMS_P1;PMS_P2;Temp;Humidity;BMP_temperature;BMP_pressure;BME280_temperature;BME280_humidity;BME280_pressure;Samples;Min_cycle;Max_cycle;Signal;HPM_P1;HPM_P2
2021/01/06 00:00:39;;;;;;;11.13;5.57;;;6.40;98.70;;;;;;5057600;28;20032;-75
2021/01/06 00:03:04;;;;;;;8.52;5.25;;;6.30;98.60;;;;;;5053532;28;20052;-75
2021/01/06 00:05:30;;;;;;;8.13;5.25;;;6.30;98.70;;;;;;5050499;28;20047;-75
2021/01/06 00:07:55;;;;;;;8.73;5.70;;;6.20;98.80;;;;;;5050991;28;20040;-74
2021/01/06 00:10:25;;;;;;;8.43;5.10;;;6.20;98.90;;;;;;5048964;28;20025;-73
2021/01/06 00:12:51;;;;;;;8.38;4.82;;;6.30;98.80;;;;;;5057712;28;20032;-74
2021/01/06 00:15:23;;;;;;;8.65;5.47;;;6.30;98.70;;;;;;5052339;28;20017;-73
2021/01/06 00:17:49;;;;;;;7.07;4.57;;;6.30;98.80;;;;;;5059751;28;20076;-73
2021/01/06 00:20:15;;;;;;;8.52;4.68;;;6.30;98.80;;;;;;5050654;28;20060;-73
2021/01/06 00:22:41;;;;;;;10.65;5.50;;;6.30;98.70;;;;;;5051353;28;20040;-75
2021/01/06 00:25:09;;;;;;;7.20;4.57;;;6.30;98.70;;;;;;5050819;28;20025;-74
2021/01/06 00:27:34;;;;;;;8.43;5.18;;;6.30;98.80;;;;;;5048896;28;20028;-75
2021/01/06 00:30:00;;;;;;;8.32;4.65;;;6.30;98.80;;;;;;5057156;28;20021;-75
2021/01/06 00:32:25;;;;;;;7.15;4.72;;;6.30;98.70;;;;;;5054648;28;20419;-75
2021/01/06 00:34:51;;;;;;;9.05;5.78;;;6.20;98.70;;;;;;5067698;28;20107;-74
2021/01/06 00:37:16;;;;;;;7.57;5.07;;;6.20;98.90;;;;;;5066751;28;20031;-75
2021/01/06 00:39:42;;;;;;;10.23;5.80;;;6.20;98.90;;;;;;5053279;28;20029;-74
2021/01/06 00:42:08;;;;;;;9.05;5.63;;;6.20;98.90;;;;;;5059770;28;20032;-74
2021/01/06 00:44:33;;;;;;;8.93;5.53;;;6.10;98.80;;;;;;5070968;28;20067;-74
2021/01/06 00:46:59;;;;;;;11.13;6.53;;;6.20;98.80;;;;;;5055106;28;20025;-74
2021/01/06 00:49:24;;;;;;;15.95;7.18;;;6.20;98.80;;;;;;5072058;28;20103;-74
2021/01/06 00:51:50;;;;;;;8.48;4.75;;;6.20;98.80;;;;;;5053583;28;20033;-74
2021/01/06 00:54:16;;;;;;;8.98;3.65;;;6.20;98.90;;;;;;5072860;28;20545;-73
2021/01/06 00:56:42;;;;;;;6.78;4.22;;;6.20;98.90;;;;;;5064104;28;20035;-73
2021/01/06 00:59:08;;;;;;;8.38;4.45;;;6.20;98.90;;;;;;5069561;28;20025;-73
2021/01/06 01:01:33;;;;;;;6.45;4.13;;;6.20;98.80;;;;;;5062349;28;20024;-73
2021/01/06 01:03:59;;;;;;;8.02;4.45;;;6.30;99.00;;;;;;5067455;28;20025;-73
2021/01/06 01:06:26;;;;;;;7.70;3.75;;;6.20;98.70;;;;;;5053513;28;20481;-72
2021/01/06 01:08:51;;;;;;;7.18;4.05;;;6.20;98.70;;;;;;5068612;28;20031;-72
2021/01/06 01:11:17;;;;;;;8.13;4.68;;;6.20;98.80;;;;;;5057338;28;20112;-73
2021/01/06 01:13:42;;;;;;;5.80;3.30;;;6.20;98.80;;;;;;5054658;28;20066;-73
2021/01/06 01:16:08;;;;;;;9.57;4.30;;;6.20;98.80;;;;;;5053483;28;20025;-73
2021/01/06 01:18:33;;;;;;;7.57;3.85;;;6.20;98.80;;;;;;5054578;28;20032;-72
2021/01/06 01:20:59;;;;;;;8.45;4.43;;;6.20;98.80;;;;;;5053556;28;20032;-72
2021/01/06 01:23:28;;;;;;;7.10;3.33;;;6.30;98.70;;;;;;5052465;28;20037;-73
2021/01/06 01:25:54;;;;;;;7.65;3.70;;;6.30;98.60;;;;;;5053205;28;20025;-72
2021/01/06 01:28:22;;;;;;;6.10;3.90;;;6.30;98.50;;;;;;5057641;28;20039;-72
2021/01/06 01:30:51;;;;;;;5.00;3.08;;;6.20;98.50;;;;;;5052700;28;20025;-73
2021/01/06 01:33:18;;;;;;;7.13;3.30;;;6.20;98.50;;;;;;5053440;28;20542;-73
2021/01/06 01:35:44;;;;;;;5.72;2.70;;;6.10;98.70;;;;;;5053097;28;20167;-72
2021/01/06 01:38:18;;;;;;;4.97;2.90;;;6.00;98.60;;;;;;5059070;28;20111;-72
2021/01/06 01:40:44;;;;;;;4.28;2.72;;;6.00;98.70;;;;;;5073009;28;20025;-73
2021/01/06 01:43:12;;;;;;;5.30;3.13;;;6.00;98.60;;;;;;5056585;28;20047;-72
2021/01/06 01:45:50;;;;;;;4.65;2.70;;;6.00;98.60;;;;;;5052581;28;20111;-72
2021/01/06 01:48:44;;;;;;;4.80;2.55;;;6.00;98.70;;;;;;5053119;28;20055;-73
2021/01/06 01:51:44;;;;;;;4.00;2.38;;;6.00;98.70;;;;;;5051910;28;20033;-73
2021/01/06 01:54:13;;;;;;;4.80;2.83;;;5.90;98.70;;;;;;5071310;28;20091;-73
2021/01/06 01:57:00;;;;;;;3.85;2.40;;;5.90;98.70;;;;;;5066652;28;20053;-72
2021/01/06 01:59:37;;;;;;;4.15;2.40;;;6.00;98.60;;;;;;5052625;28;20099;-73
2021/01/06 02:02:15;;;;;;;4.85;2.45;;;5.90;98.70;;;;;;5065327;28;20036;-72
2021/01/06 02:04:55;;;;;;;4.22;2.55;;;5.90;98.80;;;;;;5072625;28;20064;-73
2021/01/06 02:07:31;;;;;;;3.80;2.30;;;6.00;98.90;;;;;;5055483;28;20119;-72
2021/01/06 02:10:19;;;;;;;3.92;2.20;;;6.00;98.80;;;;;;5072318;28;20393;-72
2021/01/06 02:12:53;;;;;;;3.92;2.20;;;5.90;98.70;;;;;;5067806;28;20054;-72
2021/01/06 02:15:41;;;;;;;4.50;2.95;;;5.90;98.70;;;;;;5059333;28;20017;-73
2021/01/06 02:18:08;;;;;;;3.35;2.03;;;6.00;98.80;;;;;;5052501;28;20126;-73
2021/01/06 02:20:34;;;;;;;4.88;2.30;;;5.90;98.50;;;;;;5058381;28;20027;-73
2021/01/06 02:23:00;;;;;;;5.32;2.08;;;5.90;98.70;;;;;;5069635;28;20028;-73
2021/01/06 02:25:27;;;;;;;4.75;2.15;;;5.90;98.60;;;;;;5071089;28;20113;-73
2021/01/06 02:27:55;;;;;;;5.32;2.70;;;5.90;98.50;;;;;;5070123;28;20063;-73
2021/01/06 02:30:22;;;;;;;4.80;2.53;;;5.90;98.50;;;;;;5071140;28;20031;-74
2021/01/06 02:32:49;;;;;;;4.18;2.40;;;5.80;98.40;;;;;;5069422;28;20035;-73
2021/01/06 02:35:15;;;;;;;4.70;2.60;;;5.80;98.50;;;;;;5069625;28;20099;-73
2021/01/06 02:37:40;;;;;;;4.32;2.30;;;5.80;98.50;;;;;;5063139;28;20021;-73
2021/01/06 02:40:08;;;;;;;4.53;2.10;;;5.90;98.40;;;;;;5051010;28;20028;-73
2021/01/06 02:42:33;;;;;;;3.97;2.20;;;5.90;98.50;;;;;;5051589;28;20132;-73
2021/01/06 02:44:59;;;;;;;3.38;1.92;;;5.90;98.60;;;;;;5058907;28;20116;-73
2021/01/06 02:47:26;;;;;;;2.95;1.80;;;6.00;98.60;;;;;;5051880;28;20159;-73
2021/01/06 02:49:52;;;;;;;3.97;2.03;;;5.90;98.50;;;;;;5052619;28;20041;-73
2021/01/06 02:52:25;;;;;;;3.22;1.80;;;5.90;98.50;;;;;;5069419;28;20024;-73
2021/01/06 02:54:52;;;;;;;2.60;1.70;;;5.90;98.60;;;;;;5070571;28;20102;-73
2021/01/06 02:57:19;;;;;;;3.22;1.95;;;5.90;98.60;;;;;;5072400;28;20027;-74
2021/01/06 02:59:48;;;;;;;4.45;1.95;;;6.00;98.70;;;;;;5051297;28;20029;-73
2021/01/06 03:02:16;;;;;;;2.88;1.65;;;6.00;98.60;;;;;;5049907;28;20119;-73
2021/01/06 03:04:58;;;;;;;3.13;1.80;;;6.00;98.50;;;;;;5050940;28;20489;-73
2021/01/06 03:07:27;;;;;;;2.72;1.73;;;5.90;98.50;;;;;;5069154;28;20042;-73
2021/01/06 03:09:52;;;;;;;3.60;1.92;;;5.90;98.60;;;;;;5070231;28;20032;-73
2021/01/06 03:12:25;;;;;;;3.75;1.92;;;5.90;98.50;;;;;;5062453;28;20025;-73
2021/01/06 03:14:50;;;;;;;3.90;2.10;;;5.90;98.50;;;;;;5051020;28;20031;-73
2021/01/06 03:17:17;;;;;;;2.15;1.50;;;5.90;98.60;;;;;;5053039;28;20123;-73
2021/01/06 03:19:46;;;;;;;2.65;1.50;;;5.90;98.50;;;;;;5051285;28;20067;-73
2021/01/06 03:22:15;;;;;;;2.35;1.60;;;5.80;98.50;;;;;;5066228;28;20191;-73
2021/01/06 03:24:46;;;;;;;3.47;1.85;;;5.90;98.60;;;;;;5051080;28;20036;-73
2021/01/06 03:27:12;;;;;;;3.40;1.80;;;5.90;98.60;;;;;;5057300;28;20035;-73
2021/01/06 03:29:41;;;;;;;3.13;1.70;;;5.90;98.60;;;;;;5049553;28;20033;-73
2021/01/06 03:32:19;;;;;;;3.20;1.75;;;5.90;98.60;;;;;;5052601;28;20017;-73
2021/01/06 03:34:52;;;;;;;2.60;1.45;;;5.90;98.50;;;;;;5068474;28;20029;-73
2021/01/06 03:37:31;;;;;;;2.47;1.40;;;5.90;98.20;;;;;;5050785;28;20024;-73
2021/01/06 03:40:06;;;;;;;2.78;1.45;;;5.90;98.50;;;;;;5058659;28;20063;-73
2021/01/06 03:42:33;;;;;;;2.05;1.23;;;5.90;98.40;;;;;;5056036;28;20060;-73
2021/01/06 03:45:00;;;;;;;3.45;1.65;;;5.90;98.40;;;;;;5052053;28;20029;-73
2021/01/06 03:47:31;;;;;;;2.58;1.30;;;5.90;98.40;;;;;;5066485;28;20067;-73
2021/01/06 03:50:05;;;;;;;4.13;1.70;;;5.90;98.50;;;;;;5050728;28;20025;-73
2021/01/06 03:52:38;;;;;;;3.35;1.70;;;5.90;98.30;;;;;;5056160;28;20082;-73
2021/01/06 03:55:41;;;;;;;2.78;1.40;;;5.90;98.30;;;;;;5068541;28;20060;-73
2021/01/06 03:58:18;;;;;;;2.35;1.40;;;5.90;98.20;;;;;;5058553;28;20033;-73
2021/01/06 04:00:50;;;;;;;1.52;1.25;;;5.90;98.20;;;;;;5050536;28;20021;-72
2021/01/06 04:03:28;;;;;;;2.75;1.63;;;5.80;98.20;;;;;;5057241;28;20037;-72
2021/01/06 04:05:56;;;;;;;2.83;1.50;;;5.70;98.30;;;;;;5067130;28;20515;-73
2021/01/06 04:08:33;;;;;;;2.55;1.42;;;5.70;98.30;;;;;;5051336;28;20060;-72
2021/01/06 04:11:02;;;;;;;2.90;1.55;;;5.70;98.30;;;;;;5050444;28;20029;-72
2021/01/06 04:13:29;;;;;;;3.20;1.50;;;5.70;98.20;;;;;;5051152;28;20052;-72
2021/01/06 04:15:55;;;;;;;3.42;1.83;;;5.60;98.10;;;;;;5054690;28;20039;-72
2021/01/06 04:18:20;;;;;;;1.90;1.23;;;5.60;98.20;;;;;;5066092;28;20028;-72
2021/01/06 04:20:46;;;;;;;2.47;1.40;;;5.60;98.30;;;;;;5060452;28;20032;-71
2021/01/06 04:23:14;;;;;;;2.28;1.33;;;5.60;98.30;;;;;;5064671;28;20059;-72
2021/01/06 04:25:45;;;;;;;2.03;1.23;;;5.60;98.40;;;;;;5070083;28;20031;-72
2021/01/06 04:28:13;;;;;;;2.90;1.45;;;5.60;98.40;;;;;;5072692;28;20032;-72
2021/01/06 04:30:51;;;;;;;1.75;1.10;;;5.60;98.40;;;;;;5073220;28;20039;-72
2021/01/06 04:33:27;;;;;;;1.35;0.90;;;5.50;98.40;;;;;;5061228;28;20064;-73
2021/01/06 04:35:57;;;;;;;2.00;1.30;;;5.50;98.50;;;;;;5071712;28;20062;-72
2021/01/06 04:38:29;;;;;;;2.45;1.50;;;5.40;98.60;;;;;;5059104;28;20031;-72
2021/01/06 04:40:58;;;;;;;1.65;1.13;;;5.40;98.70;;;;;;5054186;28;20041;-72
2021/01/06 04:43:43;;;;;;;1.70;1.38;;;5.40;98.70;;;;;;5054994;28;20040;-71
2021/01/06 04:46:34;;;;;;;2.97;1.30;;;5.40;98.70;;;;;;5066514;28;20488;-73
2021/01/06 04:49:20;;;;;;;1.48;1.15;;;5.30;98.70;;;;;;5072094;28;20036;-72
2021/01/06 04:52:46;;;;;;;1.65;1.23;;;5.40;98.80;;;;;;5076794;28;20051;-72
2021/01/06 04:55:51;;;;;;;1.42;1.02;;;5.40;98.80;;;;;;4993792;28;20069;-72
2021/01/06 04:58:40;;;;;;;2.17;1.23;;;5.30;98.80;;;;;;5004867;28;20095;-71
2021/01/06 05:01:37;;;;;;;1.70;1.40;;;5.30;98.70;;;;;;5071683;28;20044;-73
2021/01/06 05:04:11;;;;;;;3.15;1.70;;;5.30;98.70;;;;;;5058881;28;20524;-72
2021/01/06 05:07:00;;;;;;;2.30;1.40;;;5.30;98.60;;;;;;5064067;28;20113;-72
2021/01/06 05:09:32;;;;;;;2.58;1.73;;;5.30;98.60;;;;;;5058123;28;20039;-72
2021/01/06 05:12:08;;;;;;;3.95;2.38;;;5.30;98.70;;;;;;5057838;28;20060;-71
2021/01/06 05:14:41;;;;;;;2.10;1.40;;;5.30;98.70;;;;;;5069855;28;20029;-71
2021/01/06 05:17:08;;;;;;;1.90;1.20;;;5.40;98.70;;;;;;5072052;28;20029;-72
2021/01/06 05:19:34;;;;;;;1.33;0.93;;;5.30;98.60;;;;;;5057027;28;20029;-72
2021/01/06 05:22:02;;;;;;;0.82;0.77;;;5.30;98.70;;;;;;5055989;28;20025;-72
2021/01/06 05:24:49;;;;;;;1.10;1.00;;;5.30;98.70;;;;;;5075521;28;20032;-72
2021/01/06 05:27:15;;;;;;;0.57;0.52;;;5.30;98.80;;;;;;5057689;28;20036;-73
2021/01/06 05:29:42;;;;;;;1.02;0.90;;;5.30;98.70;;;;;;5070853;28;20388;-74
2021/01/06 05:32:16;;;;;;;0.77;0.73;;;5.30;98.80;;;;;;5053878;28;20052;-72
2021/01/06 05:34:42;;;;;;;1.38;0.80;;;5.30;98.80;;;;;;5073481;28;20047;-72
2021/01/06 05:37:16;;;;;;;1.02;0.80;;;5.40;98.70;;;;;;5070379;28;20032;-71
2021/01/06 05:39:42;;;;;;;1.00;0.80;;;5.40;98.70;;;;;;5069122;28;20025;-72
2021/01/06 05:42:14;;;;;;;1.27;0.90;;;5.40;98.60;;;;;;5056855;28;20055;-71
2021/01/06 05:44:40;;;;;;;1.00;0.88;;;5.50;98.60;;;;;;5065096;28;20029;-72
2021/01/06 05:47:15;;;;;;;2.13;1.00;;;5.50;98.70;;;;;;5063766;28;20404;-72
2021/01/06 05:49:41;;;;;;;1.15;0.90;;;5.50;98.60;;;;;;5052942;28;20035;-72
2021/01/06 05:52:11;;;;;;;1.65;1.10;;;5.50;98.30;;;;;;5052622;28;20563;-71
2021/01/06 05:54:51;;;;;;;1.00;0.90;;;5.40;98.40;;;;;;5051216;28;20040;-72
2021/01/06 05:57:36;;;;;;;1.00;0.90;;;5.40;98.30;;;;;;5052609;28;20068;-73
2021/01/06 06:00:23;;;;;;;;;;;5.40;98.30;;;;;;5057905;28;20036;-72
2021/01/06 06:03:04;;;;;;;1.00;0.90;;;5.30;98.30;;;;;;5052935;28;20320;-72
2021/01/06 06:05:41;;;;;;;1.48;0.90;;;5.30;98.30;;;;;;5052914;28;20021;-72
2021/01/06 06:08:50;;;;;;;1.40;0.82;;;5.30;98.40;;;;;;5062485;28;20380;-72
2021/01/06 06:12:03;;;;;;;1.95;1.10;;;5.30;98.30;;;;;;5063570;28;20133;-71
2021/01/06 06:14:58;;;;;;;0.80;0.77;;;5.30;98.30;;;;;;5052787;28;20045;-73
2021/01/06 06:17:51;;;;;;;1.20;1.03;;;5.20;98.20;;;;;;5056471;28;20024;-69
2021/01/06 06:20:32;;;;;;;3.30;0.90;;;5.20;98.20;;;;;;5060147;28;20377;-70
2021/01/06 06:23:44;;;;;;;1.65;1.30;;;5.20;98.40;;;;;;5060912;28;20040;-71
2021/01/06 06:26:26;;;;;;;4.47;2.40;;;5.30;98.40;;;;;;5011195;28;20516;-69
2021/01/06 06:29:13;;;;;;;4.15;2.28;;;5.30;98.40;;;;;;5006912;28;20064;-68
2021/01/06 06:31:45;;;;;;;1.65;1.00;;;5.30;98.40;;;;;;5043991;28;20059;-69
2021/01/06 06:34:12;;;;;;;2.28;1.50;;;5.20;98.10;;;;;;5070123;28;20032;-71
2021/01/06 06:36:44;;;;;;;2.35;1.50;;;5.20;98.30;;;;;;5071209;28;20381;-70
2021/01/06 06:39:32;;;;;;;1.83;1.13;;;5.20;98.30;;;;;;5070809;28;20048;-71
2021/01/06 06:42:44;;;;;;;2.45;1.45;;;5.30;98.40;;;;;;5068111;28;20434;-72
2021/01/06 06:45:33;;;;;;;2.00;1.30;;;5.30;98.30;;;;;;5051851;28;20070;-73
2021/01/06 06:48:54;;;;;;;2.58;1.20;;;5.30;98.10;;;;;;5062662;28;20494;-73
2021/01/06 06:51:28;;;;;;;2.45;1.38;;;5.10;98.10;;;;;;5028640;28;20033;-73
2021/01/06 06:54:33;;;;;;;2.25;1.35;;;5.10;98.10;;;;;;5050200;28;20433;-72
2021/01/06 06:57:07;;;;;;;1.65;1.35;;;5.00;98.20;;;;;;5052465;28;20021;-73
2021/01/06 07:00:12;;;;;;;2.93;1.50;;;5.00;98.30;;;;;;5061172;28;20504;-73
2021/01/06 07:02:48;;;;;;;1.85;1.30;;;5.10;98.30;;;;;;5059182;28;20039;-73
2021/01/06 07:05:29;;;;;;;2.22;1.38;;;5.10;98.30;;;;;;5051167;28;20503;-73
2021/01/06 07:07:57;;;;;;;2.05;1.20;;;5.20;98.40;;;;;;5059475;28;20031;-73
2021/01/06 07:10:29;;;;;;;1.83;1.20;;;5.20;98.10;;;;;;5070852;28;20499;-72
2021/01/06 07:13:05;;;;;;;2.10;1.40;;;5.20;98.00;;;;;;5057062;28;20028;-72
2021/01/06 07:15:33;;;;;;;2.35;1.30;;;5.20;98.00;;;;;;5055940;28;20499;-72
2021/01/06 07:18:00;;;;;;;2.88;1.30;;;5.10;98.10;;;;;;5052775;28;20031;-72
2021/01/06 07:20:42;;;;;;;1.85;1.27;;;5.10;98.10;;;;;;5052062;28;20053;-72
2021/01/06 07:23:17;;;;;;;1.95;1.38;;;5.20;98.20;;;;;;5051137;28;20041;-68
2021/01/06 07:25:55;;;;;;;2.55;1.52;;;5.20;98.10;;;;;;5050348;28;20556;-68
2021/01/06 07:28:21;;;;;;;2.47;1.42;;;5.20;98.10;;;;;;5058726;28;20032;-68
2021/01/06 07:30:50;;;;;;;2.97;1.63;;;5.30;98.10;;;;;;5061366;28;20033;-69
2021/01/06 07:33:30;;;;;;;3.05;1.60;;;5.30;98.00;;;;;;5052450;28;20112;-69
2021/01/06 07:36:10;;;;;;;3.35;1.92;;;5.20;97.90;;;;;;5056546;28;20040;-69
2021/01/06 07:38:37;;;;;;;2.90;1.80;;;5.20;97.90;;;;;;5051575;28;20060;-68
2021/01/06 07:41:03;;;;;;;3.72;2.05;;;5.20;97.70;;;;;;5062130;28;20477;-68
2021/01/06 07:43:32;;;;;;;3.08;1.75;;;5.20;98.00;;;;;;5057521;28;20043;-68
2021/01/06 07:45:58;;;;;;;3.47;1.70;;;5.20;98.10;;;;;;5053969;28;20025;-69
2021/01/06 07:48:46;;;;;;;3.03;1.77;;;5.30;98.00;;;;;;5051910;28;20034;-68
2021/01/06 07:51:18;;;;;;;5.75;2.13;;;5.30;98.00;;;;;;5062546;28;20062;-68
2021/01/06 07:53:50;;;;;;;3.45;2.20;;;5.40;97.90;;;;;;5063982;28;20504;-68
2021/01/06 07:56:45;;;;;;;3.65;2.40;;;5.40;98.00;;;;;;5070916;28;20024;-68
2021/01/06 07:59:25;;;;;;;3.17;2.27;;;5.40;97.80;;;;;;5072895;28;20032;-69
2021/01/06 08:02:09;;;;;;;3.85;2.60;;;5.30;97.80;;;;;;5054229;28;20028;-68
2021/01/06 08:04:54;;;;;;;4.10;2.58;;;5.30;97.80;;;;;;5055040;28;20481;-68
2021/01/06 08:07:21;;;;;;;;;;;5.30;97.40;;;;;;5063996;28;20024;-70
2021/01/06 08:09:48;;;;;;;4.50;2.30;;;5.30;97.50;;;;;;5074915;28;19934;-68
2021/01/06 08:12:35;;;;;;;6.65;2.65;;;5.30;97.80;;;;;;5064928;28;20025;-69
2021/01/06 08:15:18;;;;;;;3.60;2.47;;;5.30;97.80;;;;;;5056031;28;20033;-69
2021/01/06 08:18:11;;;;;;;3.50;2.13;;;5.30;97.80;;;;;;5068060;28;20056;-68
2021/01/06 08:20:51;;;;;;;3.20;2.17;;;5.20;97.60;;;;;;5059128;28;20032;-69
2021/01/06 08:23:28;;;;;;;2.88;2.00;;;5.20;97.60;;;;;;5054652;28;20040;-68
2021/01/06 08:26:05;;;;;;;4.25;2.53;;;5.20;97.80;;;;;;5067416;28;20024;-69
2021/01/06 08:28:31;;;;;;;4.22;2.67;;;5.30;98.20;;;;;;5055053;28;20079;-69
2021/01/06 08:31:15;;;;;;;3.63;2.33;;;5.30;97.80;;;;;;5058496;28;20033;-68
2021/01/06 08:33:58;;;;;;;3.95;2.63;;;5.40;97.90;;;;;;5055093;28;20064;-69
2021/01/06 08:36:29;;;;;;;3.45;2.30;;;5.50;97.80;;;;;;5053100;28;20025;-69
2021/01/06 08:39:16;;;;;;;4.22;2.70;;;5.50;97.80;;;;;;5057235;28;20044;-69
2021/01/06 08:41:43;;;;;;;5.38;3.17;;;5.40;97.60;;;;;;5055318;28;20025;-68
2021/01/06 08:44:37;;;;;;;5.45;3.33;;;5.40;97.70;;;;;;5068551;28;20041;-68
2021/01/06 08:47:05;;;;;;;6.82;3.20;;;5.50;97.80;;;;;;5054625;28;20025;-68
2021/01/06 08:49:35;;;;;;;4.60;3.53;;;5.50;97.70;;;;;;5066636;28;20028;-70
2021/01/06 08:52:16;;;;;;;5.15;3.70;;;5.60;97.60;;;;;;5061161;28;20029;-70
2021/01/06 08:54:43;;;;;;;6.03;4.20;;;5.60;97.60;;;;;;5053590;28;20049;-69
2021/01/06 08:57:22;;;;;;;4.70;3.50;;;5.70;97.60;;;;;;5060225;28;20108;-69
2021/01/06 08:59:48;;;;;;;5.68;4.10;;;5.70;97.50;;;;;;5055349;28;20111;-68
2021/01/06 09:02:33;;;;;;;4.35;3.15;;;5.70;97.30;;;;;;5061062;28;20167;-71
2021/01/06 09:04:59;;;;;;;4.20;2.97;;;5.70;97.40;;;;;;5053250;28;20104;-71
2021/01/06 09:07:32;;;;;;;4.18;2.85;;;5.70;97.30;;;;;;5054179;28;20143;-71
2021/01/06 09:10:06;;;;;;;6.18;3.53;;;5.80;97.20;;;;;;5063634;28;20115;-71
2021/01/06 09:12:59;;;;;;;5.53;3.40;;;5.80;97.20;;;;;;5067132;28;20044;-71
2021/01/06 09:15:49;;;;;;;4.68;2.95;;;5.80;97.20;;;;;;5059324;28;20302;-71
2021/01/06 09:18:26;;;;;;;4.15;2.92;;;5.80;97.10;;;;;;5061056;28;20032;-71
2021/01/06 09:21:03;;;;;;;3.35;2.63;;;5.80;97.10;;;;;;5056410;28;20027;-71
2021/01/06 09:23:30;;;;;;;5.32;3.17;;;5.90;97.20;;;;;;5059492;28;20091;-71
2021/01/06 09:25:58;;;;;;;3.47;2.40;;;5.80;97.00;;;;;;5057482;28;20116;-71
2021/01/06 09:28:25;;;;;;;3.08;2.03;;;5.90;97.10;;;;;;5052642;28;20052;-71
2021/01/06 09:30:52;;;;;;;5.18;2.00;;;5.90;97.00;;;;;;5052023;28;20063;-71
2021/01/06 09:33:25;;;;;;;3.20;2.00;;;5.90;97.00;;;;;;5055302;28;20541;-70
2021/01/06 09:35:51;;;;;;;2.92;1.58;;;5.90;97.00;;;;;;5052779;28;20033;-70
2021/01/06 09:38:31;;;;;;;4.47;2.30;;;6.00;97.00;;;;;;5058687;28;20040;-70
2021/01/06 09:41:03;;;;;;;2.47;1.67;;;6.00;96.90;;;;;;5065335;28;20075;-70
2021/01/06 09:43:39;;;;;;;4.35;1.73;;;6.00;96.90;;;;;;5061470;28;20040;-71
2021/01/06 09:46:44;;;;;;;2.90;1.70;;;6.00;96.80;;;;;;5058587;28;20036;-71
2021/01/06 09:49:19;;;;;;;2.95;1.92;;;6.10;96.70;;;;;;5053617;28;20033;-74
2021/01/06 09:51:49;;;;;;;3.45;2.17;;;6.10;96.80;;;;;;5060960;28;20021;-71
2021/01/06 09:54:15;;;;;;;3.08;1.90;;;6.10;96.70;;;;;;5059172;28;20049;-70
2021/01/06 09:56:40;;;;;;;2.08;1.30;;;6.10;96.70;;;;;;5064327;28;20051;-69
2021/01/06 09:59:31;;;;;;;2.28;1.40;;;6.10;96.70;;;;;;5063510;28;20534;-70
2021/01/06 10:02:02;;;;;;;3.53;1.58;;;6.10;96.70;;;;;;5055845;28;20025;-69
2021/01/06 10:04:33;;;;;;;2.35;1.40;;;6.10;96.80;;;;;;5057744;28;20056;-71
2021/01/06 10:07:23;;;;;;;1.70;1.27;;;6.10;96.60;;;;;;5057093;28;20033;-70
2021/01/06 10:10:01;;;;;;;3.58;2.00;;;6.10;96.70;;;;;;5059402;28;20036;-71
2021/01/06 10:12:50;;;;;;;2.03;1.38;;;6.10;96.70;;;;;;5063628;28;20033;-71
2021/01/06 10:15:21;;;;;;;4.43;1.60;;;6.10;96.60;;;;;;5068626;28;20033;-71
2021/01/06 10:18:14;;;;;;;2.42;1.42;;;6.10;96.70;;;;;;5054398;28;20017;-70
2021/01/06 10:20:50;;;;;;;2.92;1.80;;;6.20;96.80;;;;;;5038391;28;20033;-71
2021/01/06 10:23:29;;;;;;;3.10;1.90;;;6.20;96.60;;;;;;5052143;28;20131;-71
2021/01/06 10:26:10;;;;;;;3.08;1.85;;;6.20;96.60;;;;;;5055613;28;20052;-71
2021/01/06 10:28:47;;;;;;;3.22;1.77;;;6.20;96.60;;;;;;5074475;28;20032;-70
2021/01/06 10:31:17;;;;;;;2.60;1.60;;;6.20;96.50;;;;;;5051869;28;20044;-71
2021/01/06 10:34:03;;;;;;;2.90;1.52;;;6.20;96.60;;;;;;5065444;28;20090;-71
2021/01/06 10:37:04;;;;;;;2.60;1.45;;;6.20;96.50;;;;;;5051306;28;20033;-71
2021/01/06 10:39:41;;;;;;;3.15;1.75;;;6.20;96.30;;;;;;5060288;28;20112;-70
2021/01/06 10:42:29;;;;;;;3.60;1.67;;;6.20;96.20;;;;;;5069128;28;20025;-71
2021/01/06 10:45:07;;;;;;;2.80;1.70;;;6.10;96.30;;;;;;5063264;28;20072;-71
2021/01/06 10:47:32;;;;;;;2.35;1.50;;;6.20;96.40;;;;;;5055179;28;20032;-71
2021/01/06 10:50:20;;;;;;;2.08;1.10;;;6.20;96.10;;;;;;5052444;28;20087;-71
2021/01/06 10:52:58;;;;;;;2.20;1.40;;;6.20;96.10;;;;;;5047800;28;20551;-71
2021/01/06 10:55:39;;;;;;;2.42;1.30;;;6.20;96.00;;;;;;5066739;28;20106;-71
2021/01/06 10:58:24;;;;;;;2.05;1.40;;;6.20;96.20;;;;;;5062360;28;20029;-71
2021/01/06 11:01:04;;;;;;;2.15;1.10;;;6.20;96.10;;;;;;5058975;28;20035;-71
2021/01/06 11:04:02;;;;;;;2.80;1.63;;;6.20;95.80;;;;;;5073046;28;20048;-71
2021/01/06 11:06:45;;;;;;;14.73;5.65;;;6.10;96.10;;;;;;5053100;28;20025;-71
2021/01/06 11:09:24;;;;;;;4.32;1.50;;;6.20;96.00;;;;;;5066633;28;20025;-70
2021/01/06 11:12:20;;;;;;;3.97;1.60;;;6.20;95.80;;;;;;5062677;28;20040;-71
2021/01/06 11:14:55;;;;;;;;;;;6.20;95.90;;;;;;5059633;28;20032;-72
2021/01/06 11:17:43;;;;;;;2.72;1.67;;;6.10;95.90;;;;;;5053696;28;19954;-71
2021/01/06 11:20:29;;;;;;;4.55;1.70;;;6.20;95.90;;;;;;5059460;28;20024;-71
2021/01/06 11:23:20;;;;;;;3.20;1.60;;;6.10;95.80;;;;;;5062262;28;20035;-72
2021/01/06 11:25:50;;;;;;;2.45;1.50;;;6.10;95.80;;;;;;5053825;28;20413;-71
2021/01/06 11:28:40;;;;;;;3.45;1.80;;;6.10;95.70;;;;;;5057780;28;20040;-72
2021/01/06 11:31:17;;;;;;;4.18;1.70;;;6.10;95.70;;;;;;5063622;28;20029;-72
2021/01/06 11:33:43;;;;;;;2.55;1.30;;;6.20;95.70;;;;;;5066791;28;20036;-74
2021/01/06 11:36:08;;;;;;;3.17;1.55;;;6.20;95.60;;;;;;5060166;28;21021;-72
2021/01/06 11:38:40;;;;;;;2.80;1.60;;;6.20;95.60;;;;;;5052827;28;20027;-72
2021/01/06 11:41:08;;;;;;;3.08;1.52;;;6.20;95.50;;;;;;5063067;28;20028;-74
2021/01/06 11:43:53;;;;;;;2.63;1.55;;;6.20;95.40;;;;;;5068936;28;20150;-74
2021/01/06 11:46:24;;;;;;;4.20;1.50;;;6.30;95.50;;;;;;5058381;28;20032;-71
2021/01/06 11:49:04;;;;;;;2.72;1.65;;;6.30;95.50;;;;;;5065966;28;20115;-68
2021/01/06 11:51:29;;;;;;;6.95;3.38;;;6.30;95.20;;;;;;5055348;28;20086;-68
2021/01/06 11:54:18;;;;;;;4.72;2.35;;;6.30;95.30;;;;;;5059161;28;20489;-68
2021/01/06 11:56:50;;;;;;;4.97;2.03;;;6.40;95.40;;;;;;5050601;28;20029;-69
2021/01/06 11:59:39;;;;;;;2.00;1.60;;;6.30;95.30;;;;;;5066871;28;20227;-68
2021/01/06 12:02:22;;;;;;;3.13;1.30;;;6.30;95.30;;;;;;5054847;28;20040;-68
2021/01/06 12:04:56;;;;;;;3.88;1.40;;;6.30;95.20;;;;;;5053394;28;20041;-68
2021/01/06 12:07:32;;;;;;;2.60;1.48;;;6.40;95.20;;;;;;5054642;28;20058;-68
2021/01/06 12:10:28;;;;;;;2.45;1.42;;;6.40;95.20;;;;;;5056132;28;20045;-68
2021/01/06 12:13:22;;;;;;;3.20;1.83;;;6.40;95.10;;;;;;5058153;28;20035;-68
2021/01/06 12:16:06;;;;;;;3.38;1.98;;;6.40;95.00;;;;;;5071085;28;20484;-68
2021/01/06 12:18:40;;;;;;;3.30;1.92;;;6.40;95.10;;;;;;5063515;28;20381;-69
2021/01/06 12:21:35;;;;;;;2.80;1.83;;;6.50;95.10;;;;;;5091248;28;20479;-67
2021/01/06 12:24:21;;;;;;;2.72;1.90;;;6.50;95.10;;;;;;5053162;28;20053;-67
2021/01/06 12:26:58;;;;;;;3.50;2.00;;;6.50;95.10;;;;;;5050528;28;20409;-67
2021/01/06 12:29:29;;;;;;;4.90;2.15;;;6.50;95.00;;;;;;5051099;28;20037;-67
2021/01/06 12:32:10;;;;;;;2.80;1.92;;;6.50;95.00;;;;;;5051144;28;20355;-67
2021/01/06 12:34:41;;;;;;;3.65;1.75;;;6.50;94.90;;;;;;5059522;28;20415;-67
2021/01/06 12:37:27;;;;;;;4.53;2.15;;;6.50;94.90;;;;;;5070227;28;20431;-68
2021/01/06 12:39:58;;;;;;;5.60;2.50;;;6.50;94.90;;;;;;5068416;28;20509;-68
2021/01/06 12:42:57;;;;;;;4.10;2.40;;;6.50;94.90;;;;;;5057476;28;20470;-68
2021/01/06 12:45:31;;;;;;;3.40;2.10;;;6.40;94.70;;;;;;5072669;28;20028;-68
2021/01/06 12:48:09;;;;;;;4.22;2.47;;;6.40;94.60;;;;;;5071620;28;20358;-68
2021/01/06 12:50:42;;;;;;;4.68;2.20;;;6.50;94.70;;;;;;5072691;28;20158;-68
2021/01/06 12:53:25;;;;;;;3.20;1.85;;;6.40;94.60;;;;;;5059822;28;20040;-68
2021/01/06 12:55:57;;;;;;;3.45;2.17;;;6.50;94.60;;;;;;5054115;28;20033;-68
2021/01/06 12:58:32;;;;;;;4.35;1.83;;;6.40;94.50;;;;;;5065354;28;20480;-68
2021/01/06 13:01:01;;;;;;;;;;;6.40;94.70;;;;;;5054359;28;20584;-68
2021/01/06 13:03:42;;;;;;;2.33;1.65;;;6.50;94.80;;;;;;5053066;28;20444;-68
2021/01/06 13:06:08;;;;;;;3.08;1.85;;;6.40;94.60;;;;;;5053515;28;20064;-68
2021/01/06 13:09:04;;;;;;;3.80;1.70;;;6.40;94.60;;;;;;5067328;28;20056;-68
2021/01/06 13:11:38;;;;;;;4.22;2.20;;;6.50;94.60;;;;;;5061146;28;20027;-67
2021/01/06 13:14:37;;;;;;;3.33;2.10;;;6.50;94.50;;;;;;5053977;28;20485;-68
2021/01/06 13:17:25;;;;;;;3.25;1.80;;;6.50;94.40;;;;;;5053128;28;20044;-69
2021/01/06 13:20:06;;;;;;;2.53;1.70;;;6.40;94.40;;;;;;5066551;28;20538;-69
2021/01/06 13:22:55;;;;;;;3.17;2.00;;;6.40;94.30;;;;;;5053392;28;20483;-67
2021/01/06 13:25:39;;;;;;;2.33;1.83;;;6.40;94.20;;;;;;5053207;28;20524;-68
2021/01/06 13:28:17;;;;;;;2.60;1.70;;;6.40;94.30;;;;;;5063231;28;20066;-67
2021/01/06 13:30:57;;;;;;;2.15;1.60;;;6.30;94.20;;;;;;5073559;28;20027;-68
2021/01/06 13:33:37;;;;;;;3.28;2.20;;;6.30;94.20;;;;;;5058026;28;20025;-68
2021/01/06 13:36:02;;;;;;;3.55;2.13;;;6.30;94.30;;;;;;5051401;28;20631;-68
2021/01/06 13:38:35;;;;;;;3.47;1.92;;;6.30;94.20;;;;;;5065291;28;20082;-68
2021/01/06 13:41:34;;;;;;;1.95;1.55;;;6.30;94.20;;;;;;5060542;28;20029;-68
2021/01/06 13:44:27;;;;;;;3.30;1.65;;;6.20;94.20;;;;;;5053766;28;20128;-67